SKW5426 KLAX-KACV
Flight info
| Callsign | SKW5426 |
|---|---|
| Flight time | 1h 17m |
| Altitude | 34000 |
| Route | SUMMR2 SCTRR SNS ENI YAGER |
| Aircraft | E75L/M-SDE3GILORVW/S |
Departure
| Time | 2026-04-16 21:47 |
|---|---|
| Airport | Los Angeles International Airport (KLAX) |
Arrival
| Time | 2026-04-16 23:04 |
|---|---|
| Airport | California Redwood Coast-Humboldt County Airport (KACV) |
| Time | Latitude | Longitude | Altitude | Speed | Heading |
|---|---|---|---|---|---|
| 2026-04-16 21:05 | 33.94264 | -118.39920 | 114 ft | 0 kts | 262° |
| 2026-04-16 21:16 | 33.94264 | -118.39919 | 114 ft | 3 kts | 262° |
| 2026-04-16 21:17 | 33.94268 | -118.39878 | 113 ft | 4 kts | 262° |
| 2026-04-16 21:17 | 33.94270 | -118.39864 | 113 ft | 0 kts | 262° |
| 2026-04-16 21:41 | 33.94255 | -118.39865 | 113 ft | 5 kts | 174° |
| 2026-04-16 21:41 | 33.94198 | -118.39850 | 112 ft | 10 kts | 166° |
| 2026-04-16 21:41 | 33.94127 | -118.39833 | 112 ft | 9 kts | 169° |
| 2026-04-16 21:41 | 33.94065 | -118.39820 | 112 ft | 8 kts | 171° |
| 2026-04-16 21:42 | 33.94016 | -118.39815 | 112 ft | 6 kts | 176° |
| 2026-04-16 21:42 | 33.93977 | -118.39811 | 112 ft | 4 kts | 176° |
| 2026-04-16 21:42 | 33.93948 | -118.39809 | 111 ft | 3 kts | 175° |
| 2026-04-16 21:42 | 33.93922 | -118.39802 | 111 ft | 4 kts | 162° |
| 2026-04-16 21:43 | 33.93906 | -118.39766 | 111 ft | 6 kts | 90° |
| 2026-04-16 21:43 | 33.93909 | -118.39700 | 110 ft | 8 kts | 83° |
| 2026-04-16 21:43 | 33.93917 | -118.39623 | 108 ft | 9 kts | 83° |
| 2026-04-16 21:43 | 33.93926 | -118.39541 | 108 ft | 10 kts | 83° |
| 2026-04-16 21:44 | 33.93938 | -118.39425 | 107 ft | 16 kts | 83° |
| 2026-04-16 21:44 | 33.93953 | -118.39275 | 105 ft | 18 kts | 84° |
| 2026-04-16 21:44 | 33.93966 | -118.39117 | 104 ft | 19 kts | 85° |
| 2026-04-16 21:44 | 33.93985 | -118.38950 | 102 ft | 21 kts | 84° |
| 2026-04-16 21:45 | 33.94000 | -118.38772 | 102 ft | 21 kts | 85° |
| 2026-04-16 21:45 | 33.94017 | -118.38599 | 102 ft | 21 kts | 75° |
| 2026-04-16 21:45 | 33.94038 | -118.38422 | 100 ft | 22 kts | 84° |
| 2026-04-16 21:45 | 33.94056 | -118.38229 | 99 ft | 23 kts | 83° |
| 2026-04-16 21:46 | 33.94068 | -118.38038 | 99 ft | 20 kts | 109° |
| 2026-04-16 21:46 | 33.93985 | -118.38007 | 99 ft | 13 kts | 241° |
| 2026-04-16 21:46 | 33.93968 | -118.38180 | 99 ft | 38 kts | 264° |
| 2026-04-16 21:46 | 33.93899 | -118.38802 | 102 ft | 106 kts | 263° |
| 2026-04-16 21:47 | 33.93790 | -118.39898 | 115 ft | 155 kts | 263° |
| 2026-04-16 21:47 | 33.93639 | -118.41230 | 500 ft | 166 kts | 262° |
| 2026-04-16 21:47 | 33.93506 | -118.42539 | 1355 ft | 153 kts | 263° |
| 2026-04-16 21:47 | 33.93377 | -118.43850 | 1894 ft | 171 kts | 263° |
| 2026-04-16 21:48 | 33.93226 | -118.45367 | 2404 ft | 192 kts | 263° |
| 2026-04-16 21:48 | 33.93081 | -118.47071 | 2822 ft | 221 kts | 264° |
| 2026-04-16 21:48 | 33.92920 | -118.49016 | 3329 ft | 245 kts | 264° |
| 2026-04-16 21:48 | 33.92748 | -118.51102 | 4165 ft | 254 kts | 264° |
| 2026-04-16 21:49 | 33.92574 | -118.53217 | 4974 ft | 262 kts | 263° |
| 2026-04-16 21:49 | 33.92392 | -118.55411 | 4930 ft | 265 kts | 264° |
| 2026-04-16 21:49 | 33.92207 | -118.57640 | 5127 ft | 274 kts | 263° |
| 2026-04-16 21:49 | 33.92021 | -118.59900 | 5994 ft | 268 kts | 262° |
| 2026-04-16 21:50 | 33.91840 | -118.62096 | 6706 ft | 271 kts | 263° |
| 2026-04-16 21:50 | 33.91818 | -118.64396 | 7279 ft | 279 kts | 266° |
| 2026-04-16 21:50 | 33.91783 | -118.66772 | 7936 ft | 285 kts | 265° |
| 2026-04-16 21:50 | 33.91763 | -118.69171 | 8559 ft | 291 kts | 266° |
| 2026-04-16 21:51 | 33.91749 | -118.71622 | 9194 ft | 298 kts | 266° |
| 2026-04-16 21:51 | 33.91737 | -118.74116 | 9844 ft | 303 kts | 266° |
| 2026-04-16 21:51 | 33.91725 | -118.76669 | 10506 ft | 309 kts | 267° |
| 2026-04-16 21:51 | 33.91714 | -118.79288 | 11103 ft | 318 kts | 267° |
| 2026-04-16 21:52 | 33.91701 | -118.81998 | 11625 ft | 329 kts | 268° |
| 2026-04-16 21:52 | 33.91746 | -118.84801 | 12171 ft | 340 kts | 271° |
| 2026-04-16 21:52 | 33.91830 | -118.87690 | 12726 ft | 350 kts | 271° |
| 2026-04-16 21:52 | 33.91917 | -118.90627 | 13276 ft | 360 kts | 271° |
| 2026-04-16 21:53 | 33.92006 | -118.93669 | 13831 ft | 370 kts | 271° |
| 2026-04-16 21:53 | 33.92097 | -118.96793 | 14389 ft | 379 kts | 271° |
| 2026-04-16 21:53 | 33.92234 | -118.99979 | 14929 ft | 387 kts | 278° |
| 2026-04-16 21:53 | 33.93117 | -119.03054 | 15409 ft | 394 kts | 299° |
| 2026-04-16 21:54 | 33.94481 | -119.05916 | 16000 ft | 399 kts | 302° |
| 2026-04-16 21:54 | 33.95935 | -119.08793 | 16509 ft | 405 kts | 303° |
| 2026-04-16 21:54 | 33.97423 | -119.11694 | 17027 ft | 411 kts | 303° |
| 2026-04-16 21:54 | 33.98936 | -119.14632 | 17551 ft | 416 kts | 303° |
| 2026-04-16 21:55 | 34.00514 | -119.17551 | 18064 ft | 419 kts | 310° |
| 2026-04-16 21:55 | 34.02629 | -119.19933 | 18528 ft | 420 kts | 324° |
| 2026-04-16 21:55 | 34.04958 | -119.22010 | 19137 ft | 420 kts | 326° |
| 2026-04-16 21:55 | 34.07352 | -119.24088 | 19581 ft | 425 kts | 326° |
| 2026-04-16 21:56 | 34.09769 | -119.26171 | 20002 ft | 429 kts | 326° |
| 2026-04-16 21:56 | 34.12186 | -119.28251 | 20460 ft | 432 kts | 326° |
| 2026-04-16 21:56 | 34.14611 | -119.30339 | 20893 ft | 435 kts | 326° |
| 2026-04-16 21:56 | 34.17081 | -119.32467 | 21305 ft | 438 kts | 326° |
| 2026-04-16 21:57 | 34.19467 | -119.34525 | 21695 ft | 441 kts | 326° |
| 2026-04-16 21:57 | 34.21827 | -119.36560 | 22077 ft | 443 kts | 326° |
| 2026-04-16 21:57 | 34.24334 | -119.38724 | 22457 ft | 446 kts | 326° |
| 2026-04-16 21:57 | 34.26864 | -119.40910 | 22825 ft | 448 kts | 326° |
| 2026-04-16 21:58 | 34.29397 | -119.43101 | 23185 ft | 451 kts | 326° |
| 2026-04-16 21:58 | 34.31920 | -119.45284 | 23524 ft | 453 kts | 326° |
| 2026-04-16 21:58 | 34.34495 | -119.47514 | 23848 ft | 456 kts | 326° |
| 2026-04-16 21:58 | 34.37077 | -119.49751 | 24172 ft | 458 kts | 326° |
| 2026-04-16 21:59 | 34.39639 | -119.51974 | 24491 ft | 460 kts | 326° |
| 2026-04-16 21:59 | 34.42202 | -119.54280 | 24809 ft | 462 kts | 323° |
| 2026-04-16 21:59 | 34.44735 | -119.56661 | 25133 ft | 463 kts | 323° |
| 2026-04-16 21:59 | 34.47303 | -119.59077 | 25455 ft | 464 kts | 323° |
| 2026-04-16 22:00 | 34.49841 | -119.61468 | 25776 ft | 465 kts | 323° |
| 2026-04-16 22:00 | 34.52383 | -119.63866 | 26096 ft | 466 kts | 323° |
| 2026-04-16 22:00 | 34.54941 | -119.66280 | 26414 ft | 467 kts | 323° |
| 2026-04-16 22:00 | 34.57493 | -119.68691 | 26726 ft | 467 kts | 323° |
| 2026-04-16 22:01 | 34.60047 | -119.71104 | 27039 ft | 467 kts | 323° |
| 2026-04-16 22:01 | 34.62596 | -119.73516 | 27354 ft | 467 kts | 322° |
| 2026-04-16 22:01 | 34.65147 | -119.75931 | 27657 ft | 467 kts | 322° |
| 2026-04-16 22:01 | 34.67711 | -119.78361 | 27945 ft | 467 kts | 322° |
| 2026-04-16 22:02 | 34.70263 | -119.80782 | 28258 ft | 467 kts | 322° |
| 2026-04-16 22:02 | 34.72792 | -119.83181 | 28563 ft | 466 kts | 322° |
| 2026-04-16 22:02 | 34.75358 | -119.85619 | 28854 ft | 466 kts | 322° |
| 2026-04-16 22:02 | 34.77895 | -119.88030 | 29155 ft | 466 kts | 322° |
| 2026-04-16 22:03 | 34.80426 | -119.90437 | 29461 ft | 465 kts | 322° |
| 2026-04-16 22:03 | 34.82980 | -119.92870 | 29753 ft | 464 kts | 322° |
| 2026-04-16 22:03 | 34.85498 | -119.95269 | 30049 ft | 463 kts | 322° |
| 2026-04-16 22:03 | 34.88019 | -119.97673 | 30348 ft | 462 kts | 322° |
| 2026-04-16 22:04 | 34.90530 | -120.00070 | 30646 ft | 461 kts | 323° |
| 2026-04-16 22:04 | 34.93050 | -120.02477 | 30957 ft | 459 kts | 323° |
| 2026-04-16 22:04 | 34.95531 | -120.04849 | 31245 ft | 458 kts | 323° |
| 2026-04-16 22:04 | 34.98037 | -120.07247 | 31542 ft | 456 kts | 324° |
| 2026-04-16 22:05 | 35.00503 | -120.09609 | 31847 ft | 454 kts | 324° |
| 2026-04-16 22:05 | 35.03003 | -120.12004 | 32123 ft | 453 kts | 324° |
| 2026-04-16 22:05 | 35.05460 | -120.14359 | 32398 ft | 451 kts | 325° |
| 2026-04-16 22:05 | 35.07904 | -120.16705 | 32638 ft | 451 kts | 324° |
| 2026-04-16 22:06 | 35.10363 | -120.19067 | 32853 ft | 450 kts | 325° |
| 2026-04-16 22:06 | 35.15269 | -120.23784 | 33321 ft | 449 kts | 325° |
| 2026-04-16 22:06 | 35.17721 | -120.26114 | 33540 ft | 448 kts | 326° |
| 2026-04-16 22:07 | 35.20196 | -120.28376 | 33721 ft | 448 kts | 326° |
| 2026-04-16 22:07 | 35.22703 | -120.30669 | 33944 ft | 447 kts | 326° |
| 2026-04-16 22:07 | 35.27681 | -120.35223 | 34029 ft | 454 kts | 326° |
| 2026-04-16 22:08 | 35.32788 | -120.39902 | 34032 ft | 462 kts | 326° |
| 2026-04-16 22:08 | 35.37942 | -120.44633 | 34033 ft | 470 kts | 326° |
| 2026-04-16 22:09 | 35.43199 | -120.49466 | 34043 ft | 475 kts | 326° |
| 2026-04-16 22:09 | 35.48458 | -120.54309 | 34024 ft | 474 kts | 326° |
| 2026-04-16 22:10 | 35.53719 | -120.59115 | 34020 ft | 473 kts | 327° |
| 2026-04-16 22:10 | 35.59062 | -120.63836 | 34024 ft | 472 kts | 327° |
| 2026-04-16 22:11 | 35.64364 | -120.68524 | 34016 ft | 473 kts | 327° |
| 2026-04-16 22:11 | 35.69675 | -120.73231 | 34016 ft | 473 kts | 327° |
| 2026-04-16 22:12 | 35.75018 | -120.77971 | 34013 ft | 473 kts | 327° |
| 2026-04-16 22:12 | 35.80307 | -120.82673 | 34016 ft | 473 kts | 327° |
| 2026-04-16 22:13 | 35.85625 | -120.87408 | 34008 ft | 472 kts | 327° |
| 2026-04-16 22:13 | 35.90931 | -120.92139 | 34008 ft | 473 kts | 327° |
| 2026-04-16 22:14 | 35.96259 | -120.96900 | 34007 ft | 473 kts | 327° |
| 2026-04-16 22:14 | 36.01547 | -121.01632 | 34018 ft | 472 kts | 327° |
| 2026-04-16 22:15 | 36.06854 | -121.06390 | 34038 ft | 472 kts | 327° |
| 2026-04-16 22:15 | 36.12170 | -121.11163 | 34058 ft | 471 kts | 328° |
| 2026-04-16 22:16 | 36.17450 | -121.15913 | 34063 ft | 470 kts | 328° |
| 2026-04-16 22:16 | 36.22716 | -121.20657 | 34065 ft | 469 kts | 328° |
| 2026-04-16 22:17 | 36.27964 | -121.25394 | 34065 ft | 469 kts | 328° |
| 2026-04-16 22:17 | 36.33210 | -121.30136 | 34064 ft | 469 kts | 328° |
| 2026-04-16 22:18 | 36.38472 | -121.34902 | 34063 ft | 470 kts | 328° |
| 2026-04-16 22:18 | 36.43727 | -121.39670 | 34062 ft | 469 kts | 328° |
| 2026-04-16 22:19 | 36.48957 | -121.44421 | 34069 ft | 469 kts | 328° |
| 2026-04-16 22:19 | 36.54211 | -121.49204 | 34068 ft | 470 kts | 328° |
| 2026-04-16 22:20 | 36.59465 | -121.53996 | 34070 ft | 469 kts | 328° |
| 2026-04-16 22:20 | 36.64701 | -121.58776 | 34067 ft | 469 kts | 329° |
| 2026-04-16 22:21 | 36.70266 | -121.62920 | 34086 ft | 464 kts | 336° |
| 2026-04-16 22:21 | 36.75897 | -121.66737 | 34074 ft | 464 kts | 336° |
| 2026-04-16 22:22 | 36.81560 | -121.70570 | 34079 ft | 464 kts | 336° |
| 2026-04-16 22:22 | 36.87234 | -121.74415 | 34074 ft | 464 kts | 336° |
| 2026-04-16 22:23 | 36.92863 | -121.78236 | 34071 ft | 464 kts | 336° |
| 2026-04-16 22:23 | 36.98525 | -121.82085 | 34070 ft | 465 kts | 336° |
| 2026-04-16 22:24 | 37.04168 | -121.85929 | 34072 ft | 466 kts | 336° |
| 2026-04-16 22:24 | 37.09860 | -121.89812 | 34072 ft | 468 kts | 335° |
| 2026-04-16 22:25 | 37.15577 | -121.93720 | 34074 ft | 468 kts | 335° |
| 2026-04-16 22:25 | 37.21291 | -121.97633 | 34087 ft | 468 kts | 335° |
| 2026-04-16 22:26 | 37.27011 | -122.01555 | 34099 ft | 468 kts | 335° |
| 2026-04-16 22:26 | 37.32710 | -122.05471 | 34104 ft | 468 kts | 335° |
| 2026-04-16 22:27 | 37.38098 | -122.09178 | 34105 ft | 468 kts | 335° |
| 2026-04-16 22:27 | 37.43999 | -122.13247 | 34114 ft | 468 kts | 335° |
| 2026-04-16 22:28 | 37.49721 | -122.17199 | 34112 ft | 467 kts | 335° |
| 2026-04-16 22:28 | 37.55418 | -122.21140 | 34113 ft | 467 kts | 335° |
| 2026-04-16 22:29 | 37.61133 | -122.25101 | 34111 ft | 468 kts | 335° |
| 2026-04-16 22:29 | 37.66799 | -122.29034 | 34120 ft | 467 kts | 335° |
| 2026-04-16 22:30 | 37.72493 | -122.32995 | 34124 ft | 467 kts | 335° |
| 2026-04-16 22:30 | 37.78160 | -122.36944 | 34125 ft | 468 kts | 335° |
| 2026-04-16 22:31 | 37.83861 | -122.40923 | 34126 ft | 468 kts | 335° |
| 2026-04-16 22:31 | 37.89556 | -122.44905 | 34127 ft | 468 kts | 335° |
| 2026-04-16 22:32 | 37.95221 | -122.48872 | 34121 ft | 467 kts | 335° |
| 2026-04-16 22:32 | 38.00898 | -122.52856 | 34121 ft | 468 kts | 335° |
| 2026-04-16 22:33 | 38.06583 | -122.56853 | 34122 ft | 468 kts | 335° |
| 2026-04-16 22:33 | 38.12284 | -122.60867 | 34120 ft | 468 kts | 335° |
| 2026-04-16 22:34 | 38.17953 | -122.64866 | 34121 ft | 468 kts | 335° |
| 2026-04-16 22:34 | 38.23615 | -122.68869 | 34117 ft | 467 kts | 335° |
| 2026-04-16 22:35 | 38.29284 | -122.72882 | 34120 ft | 468 kts | 335° |
| 2026-04-16 22:35 | 38.34933 | -122.76889 | 34122 ft | 469 kts | 335° |
| 2026-04-16 22:36 | 38.40617 | -122.80929 | 34124 ft | 468 kts | 335° |
| 2026-04-16 22:36 | 38.46275 | -122.84957 | 34126 ft | 468 kts | 335° |
| 2026-04-16 22:37 | 38.51956 | -122.89008 | 34128 ft | 469 kts | 335° |
| 2026-04-16 22:37 | 38.57631 | -122.93063 | 34126 ft | 468 kts | 335° |
| 2026-04-16 22:38 | 38.63280 | -122.97106 | 34128 ft | 467 kts | 334° |
| 2026-04-16 22:38 | 38.68935 | -123.01162 | 34126 ft | 468 kts | 334° |
| 2026-04-16 22:39 | 38.74605 | -123.05235 | 34125 ft | 467 kts | 334° |
| 2026-04-16 22:39 | 38.80210 | -123.09268 | 34127 ft | 467 kts | 334° |
| 2026-04-16 22:40 | 38.85865 | -123.13346 | 34134 ft | 466 kts | 334° |
| 2026-04-16 22:40 | 38.91523 | -123.17432 | 34134 ft | 467 kts | 334° |
| 2026-04-16 22:41 | 38.97078 | -123.21452 | 34136 ft | 467 kts | 333° |
| 2026-04-16 22:41 | 39.01838 | -123.24903 | 33987 ft | 469 kts | 333° |
| 2026-04-16 22:42 | 39.04764 | -123.26829 | 33336 ft | 469 kts | 338° |
| 2026-04-16 22:42 | 39.07792 | -123.28244 | 32939 ft | 464 kts | 345° |
| 2026-04-16 22:42 | 39.10854 | -123.29396 | 32367 ft | 463 kts | 346° |
| 2026-04-16 22:42 | 39.13945 | -123.30516 | 31891 ft | 462 kts | 346° |
| 2026-04-16 22:43 | 39.17048 | -123.31631 | 31358 ft | 462 kts | 346° |
| 2026-04-16 22:43 | 39.20134 | -123.32739 | 30875 ft | 463 kts | 346° |
| 2026-04-16 22:43 | 39.23220 | -123.33847 | 30351 ft | 465 kts | 346° |
| 2026-04-16 22:43 | 39.26321 | -123.34963 | 29850 ft | 466 kts | 346° |
| 2026-04-16 22:44 | 39.29429 | -123.36080 | 29331 ft | 467 kts | 346° |
| 2026-04-16 22:44 | 39.32569 | -123.37212 | 28801 ft | 468 kts | 346° |
| 2026-04-16 22:44 | 39.35695 | -123.38339 | 28315 ft | 468 kts | 346° |
| 2026-04-16 22:44 | 39.38804 | -123.39460 | 27767 ft | 470 kts | 346° |
| 2026-04-16 22:45 | 39.41944 | -123.40595 | 27281 ft | 470 kts | 346° |
| 2026-04-16 22:45 | 39.45059 | -123.41721 | 26740 ft | 465 kts | 346° |
| 2026-04-16 22:45 | 39.48145 | -123.42838 | 26243 ft | 456 kts | 346° |
| 2026-04-16 22:45 | 39.51165 | -123.43932 | 25734 ft | 451 kts | 346° |
| 2026-04-16 22:46 | 39.54156 | -123.45016 | 25252 ft | 444 kts | 346° |
| 2026-04-16 22:46 | 39.57112 | -123.46088 | 24767 ft | 440 kts | 346° |
| 2026-04-16 22:46 | 39.60033 | -123.47149 | 24299 ft | 436 kts | 346° |
| 2026-04-16 22:46 | 39.62902 | -123.48192 | 23829 ft | 433 kts | 346° |
| 2026-04-16 22:47 | 39.65812 | -123.49251 | 23356 ft | 429 kts | 346° |
| 2026-04-16 22:47 | 39.68644 | -123.50281 | 22893 ft | 426 kts | 346° |
| 2026-04-16 22:47 | 39.71479 | -123.51314 | 22425 ft | 423 kts | 346° |
| 2026-04-16 22:47 | 39.74298 | -123.52342 | 21959 ft | 420 kts | 346° |
| 2026-04-16 22:48 | 39.77072 | -123.53355 | 21500 ft | 417 kts | 346° |
| 2026-04-16 22:48 | 39.79873 | -123.54378 | 21037 ft | 414 kts | 346° |
| 2026-04-16 22:48 | 39.82635 | -123.55389 | 20580 ft | 411 kts | 346° |
| 2026-04-16 22:48 | 39.85357 | -123.56384 | 20130 ft | 409 kts | 346° |
| 2026-04-16 22:49 | 39.88049 | -123.57371 | 19684 ft | 406 kts | 346° |
| 2026-04-16 22:49 | 39.90781 | -123.58372 | 19232 ft | 403 kts | 346° |
| 2026-04-16 22:49 | 39.93447 | -123.59350 | 18791 ft | 401 kts | 346° |
| 2026-04-16 22:49 | 39.96113 | -123.60329 | 18350 ft | 398 kts | 345° |
| 2026-04-16 22:50 | 39.98755 | -123.61300 | 17916 ft | 395 kts | 345° |
| 2026-04-16 22:50 | 40.01378 | -123.62264 | 17487 ft | 393 kts | 345° |
| 2026-04-16 22:50 | 40.04010 | -123.63232 | 17068 ft | 390 kts | 345° |
| 2026-04-16 22:50 | 40.06597 | -123.64186 | 16655 ft | 387 kts | 345° |
| 2026-04-16 22:51 | 40.09147 | -123.65125 | 16247 ft | 385 kts | 345° |
| 2026-04-16 22:51 | 40.11735 | -123.66080 | 15833 ft | 383 kts | 345° |
| 2026-04-16 22:51 | 40.14281 | -123.67020 | 15424 ft | 380 kts | 345° |
| 2026-04-16 22:51 | 40.16799 | -123.67950 | 15018 ft | 378 kts | 345° |
| 2026-04-16 22:52 | 40.19313 | -123.68881 | 14604 ft | 376 kts | 345° |
| 2026-04-16 22:52 | 40.21812 | -123.69805 | 14191 ft | 373 kts | 345° |
| 2026-04-16 22:52 | 40.24304 | -123.70727 | 13778 ft | 371 kts | 345° |
| 2026-04-16 22:52 | 40.26743 | -123.71632 | 13369 ft | 365 kts | 345° |
| 2026-04-16 22:53 | 40.29069 | -123.72495 | 13044 ft | 351 kts | 345° |
| 2026-04-16 22:53 | 40.33639 | -123.74192 | 12943 ft | 311 kts | 345° |
| 2026-04-16 22:53 | 40.35672 | -123.74947 | 12763 ft | 299 kts | 345° |
| 2026-04-16 22:54 | 40.37639 | -123.75678 | 12374 ft | 295 kts | 345° |
| 2026-04-16 22:54 | 40.39585 | -123.76402 | 11915 ft | 291 kts | 345° |
| 2026-04-16 22:54 | 40.41534 | -123.77128 | 11452 ft | 290 kts | 345° |
| 2026-04-16 22:54 | 40.43440 | -123.77838 | 11079 ft | 286 kts | 345° |
| 2026-04-16 22:55 | 40.45336 | -123.78545 | 10670 ft | 284 kts | 345° |
| 2026-04-16 22:55 | 40.47224 | -123.79250 | 10253 ft | 281 kts | 345° |
| 2026-04-16 22:55 | 40.49101 | -123.79949 | 9840 ft | 279 kts | 345° |
| 2026-04-16 22:55 | 40.50947 | -123.80639 | 9438 ft | 277 kts | 345° |
| 2026-04-16 22:56 | 40.52789 | -123.81327 | 9037 ft | 274 kts | 345° |
| 2026-04-16 22:56 | 40.54615 | -123.82010 | 8622 ft | 273 kts | 345° |
| 2026-04-16 22:56 | 40.56360 | -123.82912 | 8202 ft | 272 kts | 334° |
| 2026-04-16 22:56 | 40.58035 | -123.84000 | 7876 ft | 268 kts | 334° |
| 2026-04-16 22:57 | 40.59696 | -123.85099 | 7573 ft | 265 kts | 334° |
| 2026-04-16 22:57 | 40.61342 | -123.86196 | 7282 ft | 264 kts | 334° |
| 2026-04-16 22:57 | 40.62963 | -123.87281 | 6995 ft | 264 kts | 334° |
| 2026-04-16 22:57 | 40.64596 | -123.88377 | 6703 ft | 263 kts | 334° |
| 2026-04-16 22:58 | 40.66230 | -123.89475 | 6410 ft | 263 kts | 334° |
| 2026-04-16 22:58 | 40.67841 | -123.90559 | 6127 ft | 261 kts | 334° |
| 2026-04-16 22:58 | 40.69443 | -123.91637 | 5836 ft | 259 kts | 334° |
| 2026-04-16 22:58 | 40.71040 | -123.92712 | 5560 ft | 256 kts | 334° |
| 2026-04-16 22:59 | 40.72629 | -123.93783 | 5247 ft | 256 kts | 334° |
| 2026-04-16 22:59 | 40.74210 | -123.94835 | 5088 ft | 248 kts | 334° |
| 2026-04-16 22:59 | 40.75738 | -123.95880 | 4946 ft | 253 kts | 334° |
| 2026-04-16 22:59 | 40.77303 | -123.96941 | 4644 ft | 253 kts | 334° |
| 2026-04-16 23:00 | 40.78868 | -123.97997 | 4299 ft | 251 kts | 333° |
| 2026-04-16 23:00 | 40.80396 | -123.99028 | 3967 ft | 250 kts | 333° |
| 2026-04-16 23:00 | 40.81932 | -124.00066 | 3630 ft | 248 kts | 334° |
| 2026-04-16 23:00 | 40.83441 | -124.01087 | 3265 ft | 238 kts | 334° |
| 2026-04-16 23:01 | 40.84864 | -124.02048 | 2952 ft | 226 kts | 333° |
| 2026-04-16 23:01 | 40.86231 | -124.02973 | 2649 ft | 215 kts | 333° |
| 2026-04-16 23:01 | 40.87531 | -124.03853 | 2408 ft | 204 kts | 333° |
| 2026-04-16 23:01 | 40.88773 | -124.04694 | 2073 ft | 200 kts | 334° |
| 2026-04-16 23:02 | 40.89945 | -124.05488 | 1829 ft | 179 kts | 333° |
| 2026-04-16 23:02 | 40.90969 | -124.06183 | 1584 ft | 159 kts | 333° |
| 2026-04-16 23:02 | 40.91888 | -124.06805 | 1422 ft | 135 kts | 333° |
| 2026-04-16 23:02 | 40.92674 | -124.07338 | 1197 ft | 120 kts | 334° |
| 2026-04-16 23:03 | 40.93389 | -124.07822 | 1049 ft | 111 kts | 333° |
| 2026-04-16 23:03 | 40.94061 | -124.08279 | 800 ft | 112 kts | 333° |
| 2026-04-16 23:03 | 40.94720 | -124.08806 | 609 ft | 112 kts | 328° |
| 2026-04-16 23:03 | 40.95403 | -124.09290 | 544 ft | 117 kts | 339° |
| 2026-04-16 23:04 | 40.96150 | -124.09740 | 543 ft | 125 kts | 335° |
| 2026-04-16 23:04 | 40.96916 | -124.10222 | 292 ft | 117 kts | 333° |
| 2026-04-16 23:04 | 40.97586 | -124.10671 | 229 ft | 87 kts | 332° |
| 2026-04-16 23:04 | 40.97888 | -124.10880 | 229 ft | 20 kts | 332° |
| 2026-04-16 23:05 | 40.98046 | -124.10990 | 229 ft | 32 kts | 333° |
| 2026-04-16 23:05 | 40.98155 | -124.11134 | 229 ft | 17 kts | 240° |
| 2026-04-16 23:05 | 40.98061 | -124.11119 | 229 ft | 21 kts | 150° |
| 2026-04-16 23:05 | 40.97912 | -124.11014 | 229 ft | 24 kts | 154° |
| 2026-04-16 23:06 | 40.97760 | -124.10915 | 229 ft | 23 kts | 152° |
| 2026-04-16 23:06 | 40.97622 | -124.10845 | 229 ft | 19 kts | 184° |
| 2026-04-16 23:06 | 40.97491 | -124.10854 | 229 ft | 18 kts | 182° |
| 2026-04-16 23:06 | 40.97378 | -124.10822 | 229 ft | 16 kts | 117° |
| 2026-04-16 23:07 | 40.97311 | -124.10702 | 229 ft | 18 kts | 151° |
| 2026-04-16 23:07 | 40.97199 | -124.10619 | 229 ft | 17 kts | 144° |
| 2026-04-16 23:07 | 40.97125 | -124.10541 | 229 ft | 6 kts | 142° |
| 2026-04-16 23:07 | 40.97123 | -124.10552 | 229 ft | 4 kts | 311° |
| 2026-04-16 23:08 | 40.97126 | -124.10569 | 229 ft | 2 kts | 265° |
| 2026-04-16 23:08 | 40.97136 | -124.10608 | 229 ft | 2 kts | 323° |
| 2026-04-16 23:08 | 40.97148 | -124.10619 | 229 ft | 1 kts | 329° |
| 2026-04-16 23:08 | 40.97153 | -124.10622 | 229 ft | 0 kts | 331° |